sensor_id;sensor_type;location;lat;lon;timestamp;P1;durP1;ratioP1;P2;durP2;ratioP2
2305;SDS011;1161;51.922;8.896;2023-03-19T00:00:18;25.33;;;12.50;;
2305;SDS011;1161;51.922;8.896;2023-03-19T00:02:45;18.97;;;12.77;;
2305;SDS011;1161;51.922;8.896;2023-03-19T00:05:15;21.13;;;13.37;;
2305;SDS011;1161;51.922;8.896;2023-03-19T00:07:42;14.90;;;12.27;;
2305;SDS011;1161;51.922;8.896;2023-03-19T00:10:09;16.17;;;12.20;;
2305;SDS011;1161;51.922;8.896;2023-03-19T00:12:36;13.10;;;11.00;;
2305;SDS011;1161;51.922;8.896;2023-03-19T00:15:05;14.80;;;11.70;;
2305;SDS011;1161;51.922;8.896;2023-03-19T00:17:33;20.57;;;11.00;;
2305;SDS011;1161;51.922;8.896;2023-03-19T00:19:59;11.63;;;9.13;;
2305;SDS011;1161;51.922;8.896;2023-03-19T00:22:26;13.67;;;10.03;;
2305;SDS011;1161;51.922;8.896;2023-03-19T00:24:53;17.33;;;11.13;;
2305;SDS011;1161;51.922;8.896;2023-03-19T00:27:19;18.03;;;11.00;;
2305;SDS011;1161;51.922;8.896;2023-03-19T00:29:46;22.77;;;12.07;;
2305;SDS011;1161;51.922;8.896;2023-03-19T00:32:14;20.20;;;13.13;;
2305;SDS011;1161;51.922;8.896;2023-03-19T00:34:40;21.63;;;12.93;;
2305;SDS011;1161;51.922;8.896;2023-03-19T00:37:08;27.40;;;14.40;;
2305;SDS011;1161;51.922;8.896;2023-03-19T00:39:35;17.80;;;11.90;;
2305;SDS011;1161;51.922;8.896;2023-03-19T00:42:02;19.27;;;12.30;;
2305;SDS011;1161;51.922;8.896;2023-03-19T00:44:29;20.30;;;13.60;;
2305;SDS011;1161;51.922;8.896;2023-03-19T00:46:56;16.73;;;11.57;;
2305;SDS011;1161;51.922;8.896;2023-03-19T00:49:24;22.97;;;12.73;;
2305;SDS011;1161;51.922;8.896;2023-03-19T00:51:50;20.60;;;10.40;;
2305;SDS011;1161;51.922;8.896;2023-03-19T00:54:17;13.90;;;11.17;;
2305;SDS011;1161;51.922;8.896;2023-03-19T00:56:43;12.43;;;9.47;;
2305;SDS011;1161;51.922;8.896;2023-03-19T00:59:10;14.67;;;9.10;;
2305;SDS011;1161;51.922;8.896;2023-03-19T01:01:37;16.93;;;10.33;;
2305;SDS011;1161;51.922;8.896;2023-03-19T01:04:03;20.80;;;10.57;;
2305;SDS011;1161;51.922;8.896;2023-03-19T01:06:33;20.60;;;10.40;;
2305;SDS011;1161;51.922;8.896;2023-03-19T01:08:59;19.80;;;9.73;;
2305;SDS011;1161;51.922;8.896;2023-03-19T01:11:26;20.87;;;10.60;;
2305;SDS011;1161;51.922;8.896;2023-03-19T01:13:53;15.00;;;10.90;;
2305;SDS011;1161;51.922;8.896;2023-03-19T01:16:19;16.53;;;11.60;;
2305;SDS011;1161;51.922;8.896;2023-03-19T01:18:46;12.10;;;9.60;;
2305;SDS011;1161;51.922;8.896;2023-03-19T01:21:12;13.23;;;10.10;;
2305;SDS011;1161;51.922;8.896;2023-03-19T01:23:41;9.30;;;8.10;;
2305;SDS011;1161;51.922;8.896;2023-03-19T01:26:07;14.30;;;9.50;;
2305;SDS011;1161;51.922;8.896;2023-03-19T01:28:34;12.30;;;9.20;;
2305;SDS011;1161;51.922;8.896;2023-03-19T01:31:01;20.00;;;8.57;;
2305;SDS011;1161;51.922;8.896;2023-03-19T01:33:32;16.57;;;10.67;;
2305;SDS011;1161;51.922;8.896;2023-03-19T01:35:58;16.83;;;11.83;;
2305;SDS011;1161;51.922;8.896;2023-03-19T01:38:28;14.77;;;10.90;;
2305;SDS011;1161;51.922;8.896;2023-03-19T01:40:56;14.30;;;11.00;;
2305;SDS011;1161;51.922;8.896;2023-03-19T01:43:23;15.83;;;10.50;;
2305;SDS011;1161;51.922;8.896;2023-03-19T01:45:51;15.33;;;10.27;;
2305;SDS011;1161;51.922;8.896;2023-03-19T01:48:37;23.40;;;11.20;;
2305;SDS011;1161;51.922;8.896;2023-03-19T01:51:06;16.50;;;10.87;;
2305;SDS011;1161;51.922;8.896;2023-03-19T01:53:35;17.13;;;11.37;;
2305;SDS011;1161;51.922;8.896;2023-03-19T01:56:05;17.17;;;11.40;;
2305;SDS011;1161;51.922;8.896;2023-03-19T01:58:34;13.93;;;10.90;;
2305;SDS011;1161;51.922;8.896;2023-03-19T02:01:01;17.10;;;10.27;;
2305;SDS011;1161;51.922;8.896;2023-03-19T02:03:28;14.40;;;10.37;;
2305;SDS011;1161;51.922;8.896;2023-03-19T02:05:56;18.80;;;11.87;;
2305;SDS011;1161;51.922;8.896;2023-03-19T02:08:23;19.10;;;13.43;;
2305;SDS011;1161;51.922;8.896;2023-03-19T02:10:50;16.00;;;11.60;;
2305;SDS011;1161;51.922;8.896;2023-03-19T02:13:18;12.47;;;9.87;;
2305;SDS011;1161;51.922;8.896;2023-03-19T02:15:44;14.27;;;9.73;;
2305;SDS011;1161;51.922;8.896;2023-03-19T02:18:11;17.47;;;12.00;;
2305;SDS011;1161;51.922;8.896;2023-03-19T02:20:40;20.30;;;12.17;;
2305;SDS011;1161;51.922;8.896;2023-03-19T02:23:14;18.63;;;12.03;;
2305;SDS011;1161;51.922;8.896;2023-03-19T02:25:54;16.67;;;12.67;;
2305;SDS011;1161;51.922;8.896;2023-03-19T02:28:24;24.27;;;13.77;;
2305;SDS011;1161;51.922;8.896;2023-03-19T02:30:51;23.07;;;12.30;;
2305;SDS011;1161;51.922;8.896;2023-03-19T02:33:18;16.30;;;12.73;;
2305;SDS011;1161;51.922;8.896;2023-03-19T02:35:46;33.53;;;12.63;;
2305;SDS011;1161;51.922;8.896;2023-03-19T02:38:14;15.60;;;11.90;;
2305;SDS011;1161;51.922;8.896;2023-03-19T02:40:42;21.70;;;12.53;;
2305;SDS011;1161;51.922;8.896;2023-03-19T02:43:12;20.43;;;13.20;;
2305;SDS011;1161;51.922;8.896;2023-03-19T02:45:39;15.83;;;11.10;;
2305;SDS011;1161;51.922;8.896;2023-03-19T02:48:05;21.10;;;13.73;;
2305;SDS011;1161;51.922;8.896;2023-03-19T02:50:32;18.40;;;14.17;;
2305;SDS011;1161;51.922;8.896;2023-03-19T02:52:59;17.10;;;13.53;;
2305;SDS011;1161;51.922;8.896;2023-03-19T02:55:25;26.53;;;17.03;;
2305;SDS011;1161;51.922;8.896;2023-03-19T02:57:52;20.03;;;14.07;;
2305;SDS011;1161;51.922;8.896;2023-03-19T03:00:21;23.20;;;15.20;;
2305;SDS011;1161;51.922;8.896;2023-03-19T03:02:47;27.90;;;14.07;;
2305;SDS011;1161;51.922;8.896;2023-03-19T03:05:14;26.73;;;14.50;;
2305;SDS011;1161;51.922;8.896;2023-03-19T03:07:41;24.10;;;13.17;;
2305;SDS011;1161;51.922;8.896;2023-03-19T03:10:09;22.10;;;14.13;;
2305;SDS011;1161;51.922;8.896;2023-03-19T03:12:36;19.27;;;13.53;;
2305;SDS011;1161;51.922;8.896;2023-03-19T03:15:04;17.60;;;13.60;;
2305;SDS011;1161;51.922;8.896;2023-03-19T03:17:34;20.03;;;13.00;;
2305;SDS011;1161;51.922;8.896;2023-03-19T03:20:02;18.70;;;13.07;;
2305;SDS011;1161;51.922;8.896;2023-03-19T03:22:29;19.07;;;13.97;;
2305;SDS011;1161;51.922;8.896;2023-03-19T03:24:56;23.20;;;12.60;;
2305;SDS011;1161;51.922;8.896;2023-03-19T03:27:23;16.50;;;12.63;;
2305;SDS011;1161;51.922;8.896;2023-03-19T03:29:51;16.10;;;14.23;;
2305;SDS011;1161;51.922;8.896;2023-03-19T03:32:17;18.00;;;11.40;;
2305;SDS011;1161;51.922;8.896;2023-03-19T03:34:46;28.83;;;12.97;;
2305;SDS011;1161;51.922;8.896;2023-03-19T03:37:13;18.43;;;12.40;;
2305;SDS011;1161;51.922;8.896;2023-03-19T03:39:45;18.77;;;13.70;;
2305;SDS011;1161;51.922;8.896;2023-03-19T03:42:12;21.80;;;13.67;;
2305;SDS011;1161;51.922;8.896;2023-03-19T03:44:39;21.97;;;13.50;;
2305;SDS011;1161;51.922;8.896;2023-03-19T03:47:07;26.47;;;15.40;;
2305;SDS011;1161;51.922;8.896;2023-03-19T03:49:34;19.83;;;13.67;;
2305;SDS011;1161;51.922;8.896;2023-03-19T03:52:02;19.33;;;14.63;;
2305;SDS011;1161;51.922;8.896;2023-03-19T03:54:29;18.57;;;15.00;;
2305;SDS011;1161;51.922;8.896;2023-03-19T03:56:56;20.83;;;12.00;;
2305;SDS011;1161;51.922;8.896;2023-03-19T03:59:23;29.70;;;15.40;;
2305;SDS011;1161;51.922;8.896;2023-03-19T04:01:56;21.10;;;14.93;;
2305;SDS011;1161;51.922;8.896;2023-03-19T04:04:23;22.97;;;17.03;;
2305;SDS011;1161;51.922;8.896;2023-03-19T04:06:50;30.60;;;16.20;;
2305;SDS011;1161;51.922;8.896;2023-03-19T04:09:18;25.13;;;17.23;;
2305;SDS011;1161;51.922;8.896;2023-03-19T04:11:45;26.60;;;17.87;;
2305;SDS011;1161;51.922;8.896;2023-03-19T04:14:14;34.77;;;17.43;;
2305;SDS011;1161;51.922;8.896;2023-03-19T04:16:41;23.87;;;16.80;;
2305;SDS011;1161;51.922;8.896;2023-03-19T04:19:08;33.83;;;17.63;;
2305;SDS011;1161;51.922;8.896;2023-03-19T04:21:35;31.77;;;17.77;;
2305;SDS011;1161;51.922;8.896;2023-03-19T04:24:02;22.77;;;17.30;;
2305;SDS011;1161;51.922;8.896;2023-03-19T04:26:31;20.30;;;15.40;;
2305;SDS011;1161;51.922;8.896;2023-03-19T04:28:59;25.87;;;15.33;;
2305;SDS011;1161;51.922;8.896;2023-03-19T04:31:27;26.33;;;15.27;;
2305;SDS011;1161;51.922;8.896;2023-03-19T04:33:54;22.37;;;16.37;;
2305;SDS011;1161;51.922;8.896;2023-03-19T04:36:21;27.73;;;15.10;;
2305;SDS011;1161;51.922;8.896;2023-03-19T04:38:50;20.80;;;14.77;;
2305;SDS011;1161;51.922;8.896;2023-03-19T04:41:17;19.10;;;15.30;;
2305;SDS011;1161;51.922;8.896;2023-03-19T04:43:46;21.60;;;14.67;;
2305;SDS011;1161;51.922;8.896;2023-03-19T04:46:15;26.17;;;15.60;;
2305;SDS011;1161;51.922;8.896;2023-03-19T04:48:42;29.73;;;15.90;;
2305;SDS011;1161;51.922;8.896;2023-03-19T04:51:09;17.07;;;12.90;;
2305;SDS011;1161;51.922;8.896;2023-03-19T04:53:36;18.40;;;14.03;;
2305;SDS011;1161;51.922;8.896;2023-03-19T04:56:05;24.00;;;14.13;;
2305;SDS011;1161;51.922;8.896;2023-03-19T04:58:32;26.43;;;14.47;;
2305;SDS011;1161;51.922;8.896;2023-03-19T05:01:01;23.67;;;15.10;;
2305;SDS011;1161;51.922;8.896;2023-03-19T05:03:28;32.10;;;15.87;;
2305;SDS011;1161;51.922;8.896;2023-03-19T05:05:56;25.13;;;14.50;;
2305;SDS011;1161;51.922;8.896;2023-03-19T05:08:23;17.90;;;13.87;;
2305;SDS011;1161;51.922;8.896;2023-03-19T05:10:50;20.60;;;13.60;;
2305;SDS011;1161;51.922;8.896;2023-03-19T05:13:17;20.70;;;14.10;;
2305;SDS011;1161;51.922;8.896;2023-03-19T05:15:45;23.10;;;15.77;;
2305;SDS011;1161;51.922;8.896;2023-03-19T05:18:14;25.93;;;14.60;;
2305;SDS011;1161;51.922;8.896;2023-03-19T05:20:41;25.10;;;14.63;;
2305;SDS011;1161;51.922;8.896;2023-03-19T05:23:09;19.93;;;13.60;;
2305;SDS011;1161;51.922;8.896;2023-03-19T05:25:36;18.17;;;12.90;;
2305;SDS011;1161;51.922;8.896;2023-03-19T05:28:03;19.17;;;12.97;;
2305;SDS011;1161;51.922;8.896;2023-03-19T05:30:32;14.50;;;12.60;;
2305;SDS011;1161;51.922;8.896;2023-03-19T05:32:59;19.70;;;14.17;;
2305;SDS011;1161;51.922;8.896;2023-03-19T05:35:29;25.40;;;14.60;;
2305;SDS011;1161;51.922;8.896;2023-03-19T05:37:57;20.13;;;14.73;;
2305;SDS011;1161;51.922;8.896;2023-03-19T05:40:24;20.00;;;13.80;;
2305;SDS011;1161;51.922;8.896;2023-03-19T05:42:52;19.90;;;13.37;;
2305;SDS011;1161;51.922;8.896;2023-03-19T05:45:19;20.83;;;15.07;;
2305;SDS011;1161;51.922;8.896;2023-03-19T05:47:46;23.00;;;15.77;;
2305;SDS011;1161;51.922;8.896;2023-03-19T05:50:14;20.63;;;15.83;;
2305;SDS011;1161;51.922;8.896;2023-03-19T05:52:43;20.70;;;14.97;;
2305;SDS011;1161;51.922;8.896;2023-03-19T05:55:10;20.17;;;13.73;;
2305;SDS011;1161;51.922;8.896;2023-03-19T05:57:37;22.13;;;16.00;;
2305;SDS011;1161;51.922;8.896;2023-03-19T06:00:05;18.97;;;14.53;;
2305;SDS011;1161;51.922;8.896;2023-03-19T06:02:35;28.90;;;17.60;;
2305;SDS011;1161;51.922;8.896;2023-03-19T06:05:03;23.20;;;17.60;;
2305;SDS011;1161;51.922;8.896;2023-03-19T06:07:31;30.70;;;18.10;;
2305;SDS011;1161;51.922;8.896;2023-03-19T06:09:59;23.33;;;15.63;;
2305;SDS011;1161;51.922;8.896;2023-03-19T06:12:26;20.80;;;15.57;;
2305;SDS011;1161;51.922;8.896;2023-03-19T06:14:54;30.00;;;17.60;;
2305;SDS011;1161;51.922;8.896;2023-03-19T06:17:21;27.83;;;17.33;;
2305;SDS011;1161;51.922;8.896;2023-03-19T06:19:49;25.77;;;17.00;;
2305;SDS011;1161;51.922;8.896;2023-03-19T06:22:16;28.67;;;19.90;;
2305;SDS011;1161;51.922;8.896;2023-03-19T06:24:44;32.70;;;20.63;;
2305;SDS011;1161;51.922;8.896;2023-03-19T06:27:13;36.80;;;20.53;;
2305;SDS011;1161;51.922;8.896;2023-03-19T06:29:41;31.37;;;20.90;;
2305;SDS011;1161;51.922;8.896;2023-03-19T06:32:08;34.03;;;20.00;;
2305;SDS011;1161;51.922;8.896;2023-03-19T06:34:36;30.80;;;20.27;;
2305;SDS011;1161;51.922;8.896;2023-03-19T06:37:04;31.27;;;20.80;;
2305;SDS011;1161;51.922;8.896;2023-03-19T06:39:32;34.10;;;21.07;;
2305;SDS011;1161;51.922;8.896;2023-03-19T06:41:59;35.90;;;20.47;;
2305;SDS011;1161;51.922;8.896;2023-03-19T06:44:27;35.13;;;19.20;;
2305;SDS011;1161;51.922;8.896;2023-03-19T06:46:56;43.43;;;20.57;;
2305;SDS011;1161;51.922;8.896;2023-03-19T06:49:23;25.93;;;18.50;;
2305;SDS011;1161;51.922;8.896;2023-03-19T06:51:50;31.57;;;19.43;;
2305;SDS011;1161;51.922;8.896;2023-03-19T06:54:17;30.60;;;22.10;;
2305;SDS011;1161;51.922;8.896;2023-03-19T06:56:44;34.67;;;22.50;;
2305;SDS011;1161;51.922;8.896;2023-03-19T06:59:11;49.93;;;25.83;;
2305;SDS011;1161;51.922;8.896;2023-03-19T07:01:40;38.23;;;25.10;;
2305;SDS011;1161;51.922;8.896;2023-03-19T07:04:07;45.97;;;25.40;;
2305;SDS011;1161;51.922;8.896;2023-03-19T07:06:35;44.63;;;26.00;;
2305;SDS011;1161;51.922;8.896;2023-03-19T07:09:05;41.83;;;27.93;;
2305;SDS011;1161;51.922;8.896;2023-03-19T07:11:33;41.33;;;26.07;;
2305;SDS011;1161;51.922;8.896;2023-03-19T07:14:03;39.70;;;25.40;;
2305;SDS011;1161;51.922;8.896;2023-03-19T07:16:31;44.83;;;27.03;;
2305;SDS011;1161;51.922;8.896;2023-03-19T07:18:59;37.93;;;25.60;;
2305;SDS011;1161;51.922;8.896;2023-03-19T07:21:31;47.60;;;24.97;;
2305;SDS011;1161;51.922;8.896;2023-03-19T07:23:59;37.13;;;21.50;;
2305;SDS011;1161;51.922;8.896;2023-03-19T07:26:27;38.73;;;25.10;;
2305;SDS011;1161;51.922;8.896;2023-03-19T07:28:55;36.33;;;22.60;;
2305;SDS011;1161;51.922;8.896;2023-03-19T07:31:22;38.93;;;23.57;;
2305;SDS011;1161;51.922;8.896;2023-03-19T07:33:51;42.47;;;26.20;;
2305;SDS011;1161;51.922;8.896;2023-03-19T07:36:23;39.30;;;24.27;;
2305;SDS011;1161;51.922;8.896;2023-03-19T07:38:50;43.80;;;26.50;;
2305;SDS011;1161;51.922;8.896;2023-03-19T07:41:17;37.80;;;24.77;;
2305;SDS011;1161;51.922;8.896;2023-03-19T07:43:47;39.63;;;25.17;;
2305;SDS011;1161;51.922;8.896;2023-03-19T07:46:17;49.93;;;22.73;;
2305;SDS011;1161;51.922;8.896;2023-03-19T07:48:44;36.33;;;22.87;;
2305;SDS011;1161;51.922;8.896;2023-03-19T07:51:11;39.17;;;23.70;;
2305;SDS011;1161;51.922;8.896;2023-03-19T07:53:40;36.57;;;21.80;;
2305;SDS011;1161;51.922;8.896;2023-03-19T07:56:07;23.47;;;18.37;;
2305;SDS011;1161;51.922;8.896;2023-03-19T07:58:33;25.47;;;17.67;;
2305;SDS011;1161;51.922;8.896;2023-03-19T08:01:00;30.00;;;19.03;;
2305;SDS011;1161;51.922;8.896;2023-03-19T08:03:28;27.60;;;17.90;;
2305;SDS011;1161;51.922;8.896;2023-03-19T08:05:55;30.07;;;18.23;;
2305;SDS011;1161;51.922;8.896;2023-03-19T08:08:22;34.73;;;19.50;;
2305;SDS011;1161;51.922;8.896;2023-03-19T08:10:51;29.43;;;17.30;;
2305;SDS011;1161;51.922;8.896;2023-03-19T08:13:18;27.80;;;18.83;;
2305;SDS011;1161;51.922;8.896;2023-03-19T08:15:45;29.03;;;15.90;;
2305;SDS011;1161;51.922;8.896;2023-03-19T08:18:12;23.80;;;14.47;;
2305;SDS011;1161;51.922;8.896;2023-03-19T08:20:38;19.67;;;15.00;;
2305;SDS011;1161;51.922;8.896;2023-03-19T08:23:05;22.77;;;14.73;;
2305;SDS011;1161;51.922;8.896;2023-03-19T08:25:32;19.73;;;12.67;;
2305;SDS011;1161;51.922;8.896;2023-03-19T08:28:00;23.63;;;15.77;;
2305;SDS011;1161;51.922;8.896;2023-03-19T08:30:27;19.30;;;13.70;;
2305;SDS011;1161;51.922;8.896;2023-03-19T08:32:54;27.63;;;14.37;;
2305;SDS011;1161;51.922;8.896;2023-03-19T08:35:21;20.50;;;11.53;;
2305;SDS011;1161;51.922;8.896;2023-03-19T08:37:47;14.60;;;11.00;;
2305;SDS011;1161;51.922;8.896;2023-03-19T08:40:14;22.10;;;11.90;;
2305;SDS011;1161;51.922;8.896;2023-03-19T08:42:40;7.93;;;7.03;;
2305;SDS011;1161;51.922;8.896;2023-03-19T08:45:09;11.97;;;8.73;;
2305;SDS011;1161;51.922;8.896;2023-03-19T08:47:37;19.20;;;10.33;;
2305;SDS011;1161;51.922;8.896;2023-03-19T08:50:04;4.60;;;4.27;;
2305;SDS011;1161;51.922;8.896;2023-03-19T08:52:31;7.30;;;6.53;;
2305;SDS011;1161;51.922;8.896;2023-03-19T08:54:58;2.50;;;2.30;;
2305;SDS011;1161;51.922;8.896;2023-03-19T08:57:25;3.57;;;3.23;;
2305;SDS011;1161;51.922;8.896;2023-03-19T08:59:52;2.47;;;2.37;;
2305;SDS011;1161;51.922;8.896;2023-03-19T09:02:20;3.87;;;2.77;;
2305;SDS011;1161;51.922;8.896;2023-03-19T09:04:47;2.83;;;2.60;;
2305;SDS011;1161;51.922;8.896;2023-03-19T09:07:14;2.63;;;2.43;;
2305;SDS011;1161;51.922;8.896;2023-03-19T09:09:41;6.00;;;1.83;;
2305;SDS011;1161;51.922;8.896;2023-03-19T09:12:08;2.33;;;2.13;;
2305;SDS011;1161;51.922;8.896;2023-03-19T09:14:36;1.97;;;1.77;;
2305;SDS011;1161;51.922;8.896;2023-03-19T09:17:03;2.30;;;2.13;;
2305;SDS011;1161;51.922;8.896;2023-03-19T09:19:31;3.80;;;2.17;;
2305;SDS011;1161;51.922;8.896;2023-03-19T09:21:58;4.47;;;2.27;;
2305;SDS011;1161;51.922;8.896;2023-03-19T09:24:25;2.80;;;2.37;;
2305;SDS011;1161;51.922;8.896;2023-03-19T09:26:52;2.13;;;2.03;;
2305;SDS011;1161;51.922;8.896;2023-03-19T09:29:18;2.63;;;2.40;;
2305;SDS011;1161;51.922;8.896;2023-03-19T09:31:45;2.00;;;1.90;;
2305;SDS011;1161;51.922;8.896;2023-03-19T09:34:11;1.83;;;1.70;;
2305;SDS011;1161;51.922;8.896;2023-03-19T09:36:40;3.63;;;2.60;;
2305;SDS011;1161;51.922;8.896;2023-03-19T09:39:07;2.73;;;2.13;;
2305;SDS011;1161;51.922;8.896;2023-03-19T09:41:34;3.13;;;2.30;;
2305;SDS011;1161;51.922;8.896;2023-03-19T09:44:09;1.87;;;1.80;;
2305;SDS011;1161;51.922;8.896;2023-03-19T09:46:38;1.83;;;1.70;;
2305;SDS011;1161;51.922;8.896;2023-03-19T09:49:11;2.37;;;2.10;;
2305;SDS011;1161;51.922;8.896;2023-03-19T09:51:43;4.97;;;2.53;;
2305;SDS011;1161;51.922;8.896;2023-03-19T09:54:17;5.90;;;2.10;;
2305;SDS011;1161;51.922;8.896;2023-03-19T09:56:49;3.90;;;2.43;;
2305;SDS011;1161;51.922;8.896;2023-03-19T09:59:16;8.83;;;3.37;;
2305;SDS011;1161;51.922;8.896;2023-03-19T10:01:44;4.27;;;3.30;;
2305;SDS011;1161;51.922;8.896;2023-03-19T10:04:18;6.43;;;3.00;;
2305;SDS011;1161;51.922;8.896;2023-03-19T10:07:03;3.03;;;2.50;;
2305;SDS011;1161;51.922;8.896;2023-03-19T10:09:37;4.13;;;2.70;;
2305;SDS011;1161;51.922;8.896;2023-03-19T10:12:11;5.37;;;2.93;;
2305;SDS011;1161;51.922;8.896;2023-03-19T10:14:47;4.80;;;2.50;;
2305;SDS011;1161;51.922;8.896;2023-03-19T10:17:21;3.33;;;2.33;;
2305;SDS011;1161;51.922;8.896;2023-03-19T10:19:52;3.10;;;2.33;;
2305;SDS011;1161;51.922;8.896;2023-03-19T10:22:23;2.53;;;2.33;;
2305;SDS011;1161;51.922;8.896;2023-03-19T10:24:52;5.80;;;3.13;;
2305;SDS011;1161;51.922;8.896;2023-03-19T10:27:20;3.87;;;2.60;;
2305;SDS011;1161;51.922;8.896;2023-03-19T10:29:48;4.50;;;2.93;;
2305;SDS011;1161;51.922;8.896;2023-03-19T10:32:16;3.67;;;3.30;;
2305;SDS011;1161;51.922;8.896;2023-03-19T10:34:44;4.93;;;3.50;;
2305;SDS011;1161;51.922;8.896;2023-03-19T10:37:13;6.37;;;2.93;;
2305;SDS011;1161;51.922;8.896;2023-03-19T10:39:43;8.30;;;3.90;;
2305;SDS011;1161;51.922;8.896;2023-03-19T10:42:25;5.00;;;3.33;;
2305;SDS011;1161;51.922;8.896;2023-03-19T10:45:08;11.37;;;4.17;;
2305;SDS011;1161;51.922;8.896;2023-03-19T10:47:40;7.97;;;3.60;;
2305;SDS011;1161;51.922;8.896;2023-03-19T10:50:09;4.83;;;3.63;;
2305;SDS011;1161;51.922;8.896;2023-03-19T10:52:40;4.17;;;3.87;;
2305;SDS011;1161;51.922;8.896;2023-03-19T10:55:13;10.20;;;3.80;;
2305;SDS011;1161;51.922;8.896;2023-03-19T10:57:42;6.40;;;3.33;;
2305;SDS011;1161;51.922;8.896;2023-03-19T11:00:14;3.60;;;3.13;;
2305;SDS011;1161;51.922;8.896;2023-03-19T11:02:45;9.60;;;4.77;;
2305;SDS011;1161;51.922;8.896;2023-03-19T11:05:20;8.60;;;4.60;;
2305;SDS011;1161;51.922;8.896;2023-03-19T11:07:49;14.13;;;8.40;;
2305;SDS011;1161;51.922;8.896;2023-03-19T11:10:17;6.00;;;3.60;;
2305;SDS011;1161;51.922;8.896;2023-03-19T11:12:46;8.13;;;4.90;;
2305;SDS011;1161;51.922;8.896;2023-03-19T11:15:15;3.73;;;3.43;;
2305;SDS011;1161;51.922;8.896;2023-03-19T11:17:45;4.00;;;3.60;;
2305;SDS011;1161;51.922;8.896;2023-03-19T11:20:18;6.57;;;3.43;;
2305;SDS011;1161;51.922;8.896;2023-03-19T11:22:48;10.53;;;3.50;;
2305;SDS011;1161;51.922;8.896;2023-03-19T11:25:15;5.50;;;3.10;;
2305;SDS011;1161;51.922;8.896;2023-03-19T11:27:44;2.80;;;2.37;;
2305;SDS011;1161;51.922;8.896;2023-03-19T11:30:23;4.63;;;2.87;;
2305;SDS011;1161;51.922;8.896;2023-03-19T11:32:59;5.10;;;4.70;;
2305;SDS011;1161;51.922;8.896;2023-03-19T11:35:33;6.30;;;4.30;;
2305;SDS011;1161;51.922;8.896;2023-03-19T11:38:02;4.53;;;3.67;;
2305;SDS011;1161;51.922;8.896;2023-03-19T11:40:40;6.97;;;4.40;;
2305;SDS011;1161;51.922;8.896;2023-03-19T11:43:15;19.03;;;4.50;;
2305;SDS011;1161;51.922;8.896;2023-03-19T11:46:15;7.57;;;4.70;;
2305;SDS011;1161;51.922;8.896;2023-03-19T11:48:49;6.30;;;4.73;;
2305;SDS011;1161;51.922;8.896;2023-03-19T11:51:36;6.27;;;4.67;;
2305;SDS011;1161;51.922;8.896;2023-03-19T11:54:04;5.40;;;4.13;;
2305;SDS011;1161;51.922;8.896;2023-03-19T11:56:37;8.53;;;4.30;;
2305;SDS011;1161;51.922;8.896;2023-03-19T11:59:19;7.10;;;4.43;;
2305;SDS011;1161;51.922;8.896;2023-03-19T12:02:17;9.00;;;5.53;;
2305;SDS011;1161;51.922;8.896;2023-03-19T12:05:17;10.63;;;4.83;;
2305;SDS011;1161;51.922;8.896;2023-03-19T12:07:47;27.07;;;11.13;;
2305;SDS011;1161;51.922;8.896;2023-03-19T12:10:28;14.77;;;8.67;;
2305;SDS011;1161;51.922;8.896;2023-03-19T12:13:15;7.90;;;4.57;;
2305;SDS011;1161;51.922;8.896;2023-03-19T12:15:51;19.17;;;8.73;;
2305;SDS011;1161;51.922;8.896;2023-03-19T12:18:36;3.50;;;3.07;;
2305;SDS011;1161;51.922;8.896;2023-03-19T12:21:10;6.73;;;4.40;;
2305;SDS011;1161;51.922;8.896;2023-03-19T12:23:43;5.23;;;3.60;;
2305;SDS011;1161;51.922;8.896;2023-03-19T12:26:18;3.57;;;3.20;;
2305;SDS011;1161;51.922;8.896;2023-03-19T12:28:52;6.73;;;3.70;;
2305;SDS011;1161;51.922;8.896;2023-03-19T12:31:27;4.83;;;3.57;;
2305;SDS011;1161;51.922;8.896;2023-03-19T12:36:50;6.57;;;5.10;;
2305;SDS011;1161;51.922;8.896;2023-03-19T12:39:20;6.47;;;4.33;;
2305;SDS011;1161;51.922;8.896;2023-03-19T12:41:48;6.97;;;3.70;;
2305;SDS011;1161;51.922;8.896;2023-03-19T12:44:18;6.10;;;4.63;;
2305;SDS011;1161;51.922;8.896;2023-03-19T12:46:48;8.27;;;4.47;;
2305;SDS011;1161;51.922;8.896;2023-03-19T12:49:20;8.40;;;4.57;;
2305;SDS011;1161;51.922;8.896;2023-03-19T12:51:51;9.23;;;5.23;;
2305;SDS011;1161;51.922;8.896;2023-03-19T12:54:22;6.00;;;4.60;;
2305;SDS011;1161;51.922;8.896;2023-03-19T12:56:51;6.80;;;4.83;;
2305;SDS011;1161;51.922;8.896;2023-03-19T12:59:23;8.63;;;3.87;;
2305;SDS011;1161;51.922;8.896;2023-03-19T13:01:56;6.30;;;4.90;;
2305;SDS011;1161;51.922;8.896;2023-03-19T13:04:25;9.70;;;5.00;;
2305;SDS011;1161;51.922;8.896;2023-03-19T13:06:55;8.43;;;4.70;;
2305;SDS011;1161;51.922;8.896;2023-03-19T13:09:26;14.00;;;4.60;;
2305;SDS011;1161;51.922;8.896;2023-03-19T13:11:56;7.17;;;4.80;;
2305;SDS011;1161;51.922;8.896;2023-03-19T13:14:28;7.53;;;4.87;;
2305;SDS011;1161;51.922;8.896;2023-03-19T13:17:00;4.63;;;4.03;;
2305;SDS011;1161;51.922;8.896;2023-03-19T13:19:29;7.53;;;5.57;;
2305;SDS011;1161;51.922;8.896;2023-03-19T13:22:00;4.07;;;3.77;;
2305;SDS011;1161;51.922;8.896;2023-03-19T13:24:29;8.77;;;4.33;;
2305;SDS011;1161;51.922;8.896;2023-03-19T13:26:57;5.13;;;4.30;;
2305;SDS011;1161;51.922;8.896;2023-03-19T13:29:26;6.27;;;4.63;;
2305;SDS011;1161;51.922;8.896;2023-03-19T13:31:58;5.43;;;4.10;;
2305;SDS011;1161;51.922;8.896;2023-03-19T13:34:26;6.77;;;4.87;;
2305;SDS011;1161;51.922;8.896;2023-03-19T13:36:57;6.07;;;3.70;;
2305;SDS011;1161;51.922;8.896;2023-03-19T13:39:27;5.27;;;4.33;;
2305;SDS011;1161;51.922;8.896;2023-03-19T13:42:09;11.60;;;4.33;;
2305;SDS011;1161;51.922;8.896;2023-03-19T13:44:49;4.97;;;3.67;;
2305;SDS011;1161;51.922;8.896;2023-03-19T13:47:38;3.70;;;2.40;;
2305;SDS011;1161;51.922;8.896;2023-03-19T13:52:53;2.60;;;1.20;;
2305;SDS011;1161;51.922;8.896;2023-03-19T13:55:44;4.20;;;3.43;;
2305;SDS011;1161;51.922;8.896;2023-03-19T13:58:17;3.13;;;2.70;;
2305;SDS011;1161;51.922;8.896;2023-03-19T14:01:04;4.03;;;3.27;;
2305;SDS011;1161;51.922;8.896;2023-03-19T14:03:32;6.27;;;2.70;;
2305;SDS011;1161;51.922;8.896;2023-03-19T14:05:59;3.57;;;2.80;;
2305;SDS011;1161;51.922;8.896;2023-03-19T14:08:27;5.20;;;2.83;;
2305;SDS011;1161;51.922;8.896;2023-03-19T14:10:56;8.30;;;4.60;;
2305;SDS011;1161;51.922;8.896;2023-03-19T14:13:26;5.80;;;4.20;;
2305;SDS011;1161;51.922;8.896;2023-03-19T14:16:04;7.83;;;3.90;;
2305;SDS011;1161;51.922;8.896;2023-03-19T14:18:33;7.60;;;4.03;;
2305;SDS011;1161;51.922;8.896;2023-03-19T14:21:04;5.97;;;4.83;;
2305;SDS011;1161;51.922;8.896;2023-03-19T14:23:32;6.10;;;4.87;;
2305;SDS011;1161;51.922;8.896;2023-03-19T14:26:03;11.90;;;5.30;;
2305;SDS011;1161;51.922;8.896;2023-03-19T14:28:38;11.10;;;6.80;;
2305;SDS011;1161;51.922;8.896;2023-03-19T14:31:20;11.90;;;4.90;;
2305;SDS011;1161;51.922;8.896;2023-03-19T14:33:49;10.37;;;5.67;;
2305;SDS011;1161;51.922;8.896;2023-03-19T14:36:19;13.77;;;6.40;;
2305;SDS011;1161;51.922;8.896;2023-03-19T14:38:47;9.90;;;6.53;;
2305;SDS011;1161;51.922;8.896;2023-03-19T14:41:16;7.87;;;5.50;;
2305;SDS011;1161;51.922;8.896;2023-03-19T14:46:43;10.50;;;6.20;;
2305;SDS011;1161;51.922;8.896;2023-03-19T14:49:38;9.70;;;5.10;;
2305;SDS011;1161;51.922;8.896;2023-03-19T14:52:15;6.17;;;5.40;;
2305;SDS011;1161;51.922;8.896;2023-03-19T14:54:43;8.63;;;4.93;;
2305;SDS011;1161;51.922;8.896;2023-03-19T14:57:15;4.97;;;4.40;;
2305;SDS011;1161;51.922;8.896;2023-03-19T14:59:43;5.20;;;3.90;;
2305;SDS011;1161;51.922;8.896;2023-03-19T15:02:20;9.47;;;5.70;;
2305;SDS011;1161;51.922;8.896;2023-03-19T15:04:51;7.63;;;5.50;;
2305;SDS011;1161;51.922;8.896;2023-03-19T15:07:19;8.43;;;5.70;;
2305;SDS011;1161;51.922;8.896;2023-03-19T15:09:48;9.23;;;5.87;;
2305;SDS011;1161;51.922;8.896;2023-03-19T15:12:22;9.30;;;5.93;;
2305;SDS011;1161;51.922;8.896;2023-03-19T15:15:09;8.00;;;4.93;;
2305;SDS011;1161;51.922;8.896;2023-03-19T15:17:45;8.50;;;5.77;;
2305;SDS011;1161;51.922;8.896;2023-03-19T15:20:16;7.10;;;5.90;;